Time;durP1;ratioP1;P1;durP2;ratioP2;P2;SDS_P1;SDS_P2;PMS_P1;PMS_P2;Temp;Humidity;BMP_temperature;BMP_pressure;BME280_temperature;BME280_humidity;BME280_pressure;Samples;Min_cycle;Max_cycle;Signal;HPM_P1;HPM_P2
2023/04/02 00:01:25;;;;;;;0.73;0.50;;;16.60;62.50;;;;;;5015674;28;20477;-72
2023/04/02 00:04:02;;;;;;;0.85;0.73;;;16.60;62.40;;;;;;5015264;28;20555;-72
2023/04/02 00:06:29;;;;;;;1.02;0.50;;;16.60;62.50;;;;;;5015674;28;20436;-72
2023/04/02 00:09:03;;;;;;;1.13;0.70;;;16.60;62.60;;;;;;5015138;28;20492;-72
2023/04/02 00:11:45;;;;;;;1.20;0.70;;;16.60;62.30;;;;;;5013189;28;20040;-72
2023/04/02 00:14:22;;;;;;;0.35;0.35;;;16.60;62.30;;;;;;5015366;28;20048;-72
2023/04/02 00:16:49;;;;;;;0.90;0.60;;;16.60;62.50;;;;;;5014907;28;20493;-72
2023/04/02 00:19:39;;;;;;;0.57;0.57;;;16.60;62.20;;;;;;5015245;28;20080;-72
2023/04/02 00:22:08;;;;;;;0.50;0.45;;;16.60;62.30;;;;;;5015012;28;20030;-72
2023/04/02 00:24:34;;;;;;;0.82;0.60;;;16.60;62.30;;;;;;5015142;28;20033;-72
2023/04/02 00:27:00;;;;;;;1.20;0.57;;;16.60;62.20;;;;;;5015081;28;20026;-72
2023/04/02 00:29:26;;;;;;;0.50;0.50;;;16.50;62.10;;;;;;5015123;28;20034;-72
2023/04/02 00:31:53;;;;;;;0.77;0.70;;;16.50;62.30;;;;;;5014712;28;20060;-72
2023/04/02 00:34:21;;;;;;;0.63;0.63;;;16.50;62.30;;;;;;5014941;28;20109;-72
2023/04/02 00:36:48;;;;;;;0.60;0.50;;;16.60;62.30;;;;;;5014599;28;20112;-72
2023/04/02 00:39:19;;;;;;;1.02;0.52;;;16.60;62.30;;;;;;5014632;28;20029;-72
2023/04/02 00:41:46;;;;;;;1.88;1.52;;;16.50;62.30;;;;;;4996986;28;20022;-72
2023/04/02 00:44:20;;;;;;;1.02;0.80;;;16.50;61.50;;;;;;5014401;28;20037;-72
2023/04/02 00:46:48;;;;;;;1.20;0.88;;;16.60;62.10;;;;;;5014538;28;20453;-72
2023/04/02 00:49:25;;;;;;;0.50;0.50;;;16.50;62.00;;;;;;5014463;28;20022;-72
2023/04/02 00:52:11;;;;;;;0.70;0.70;;;16.50;62.10;;;;;;5014783;28;20105;-72
2023/04/02 00:54:58;;;;;;;1.15;0.90;;;16.50;61.80;;;;;;5014670;28;20026;-72
2023/04/02 00:57:26;;;;;;;1.45;1.00;;;16.50;61.50;;;;;;5014274;28;20473;-72
2023/04/02 00:59:58;;;;;;;1.30;0.95;;;16.50;61.70;;;;;;5014194;28;20046;-72
2023/04/02 01:02:31;;;;;;;0.90;0.73;;;16.50;61.80;;;;;;5014134;28;20026;-72
2023/04/02 01:05:01;;;;;;;1.05;0.88;;;16.50;61.80;;;;;;5014378;28;20065;-71
2023/04/02 01:07:54;;;;;;;0.50;0.50;;;16.50;61.80;;;;;;5014406;28;20028;-72
2023/04/02 01:10:30;;;;;;;1.25;0.98;;;16.50;61.60;;;;;;5014390;28;20053;-72
2023/04/02 01:13:28;;;;;;;1.17;0.80;;;16.50;61.80;;;;;;4996453;28;20050;-72
2023/04/02 01:16:26;;;;;;;0.80;0.63;;;16.50;61.80;;;;;;5005334;28;20129;-71
2023/04/02 01:19:00;;;;;;;1.13;0.63;;;16.50;61.80;;;;;;5013491;28;20057;-72
2023/04/02 01:22:05;;;;;;;1.05;0.88;;;16.50;61.80;;;;;;5014135;28;20029;-72
2023/04/02 01:24:33;;;;;;;0.90;0.73;;;16.50;61.80;;;;;;5013749;28;20034;-72
2023/04/02 01:27:02;;;;;;;0.57;0.57;;;16.50;61.90;;;;;;5013803;28;20104;-72
2023/04/02 01:29:33;;;;;;;0.52;0.50;;;16.50;61.90;;;;;;5013802;28;20085;-72
2023/04/02 01:32:26;;;;;;;1.15;0.50;;;16.40;61.90;;;;;;5013799;28;20104;-71
2023/04/02 01:34:52;;;;;;;0.50;0.50;;;16.50;61.90;;;;;;5012103;28;20180;-72
2023/04/02 01:37:43;;;;;;;0.70;0.52;;;16.40;61.90;;;;;;5013615;28;20577;-72
2023/04/02 01:40:18;;;;;;;0.82;0.82;;;16.50;61.90;;;;;;5013499;28;20062;-72
2023/04/02 01:43:08;;;;;;;1.20;0.80;;;16.50;61.50;;;;;;4996014;28;20465;-72
2023/04/02 01:45:33;;;;;;;;;;;16.40;61.70;;;;;;5013966;28;20105;-72
2023/04/02 01:48:04;;;;;;;1.77;1.00;;;16.40;61.70;;;;;;5012901;28;19945;-72
2023/04/02 01:50:41;;;;;;;1.80;0.90;;;16.40;61.70;;;;;;5013495;28;20028;-72
2023/04/02 01:53:10;;;;;;;0.85;0.70;;;16.40;61.60;;;;;;5013355;28;20026;-72
2023/04/02 01:55:55;;;;;;;1.00;0.90;;;16.40;61.50;;;;;;5013285;28;20481;-72
2023/04/02 01:58:25;;;;;;;0.85;0.68;;;16.40;61.60;;;;;;5013554;28;20025;-72
2023/04/02 02:00:51;;;;;;;2.63;1.03;;;16.40;61.50;;;;;;5013521;28;20483;-72
2023/04/02 02:03:18;;;;;;;1.60;1.08;;;16.40;61.60;;;;;;5013332;28;20065;-72
2023/04/02 02:05:45;;;;;;;0.80;0.80;;;16.40;61.50;;;;;;5013423;28;20018;-72
2023/04/02 02:08:28;;;;;;;1.83;0.98;;;16.40;61.40;;;;;;5013317;28;20025;-72
2023/04/02 02:10:55;;;;;;;2.88;1.58;;;16.40;61.50;;;;;;5013098;28;20065;-72
2023/04/02 02:13:21;;;;;;;1.50;0.88;;;16.30;61.20;;;;;;5013220;28;20026;-72
2023/04/02 02:15:48;;;;;;;1.00;0.80;;;16.30;61.40;;;;;;5012692;28;20081;-71
2023/04/02 02:18:19;;;;;;;0.90;0.80;;;16.30;61.40;;;;;;5012909;28;20034;-72
2023/04/02 02:20:45;;;;;;;1.08;0.98;;;16.40;61.30;;;;;;5012878;28;20030;-72
2023/04/02 02:23:12;;;;;;;2.60;0.80;;;16.30;61.40;;;;;;5012803;28;20033;-71
2023/04/02 02:25:38;;;;;;;1.20;0.98;;;16.30;61.30;;;;;;5012864;28;20042;-71
2023/04/02 02:28:06;;;;;;;1.17;0.63;;;16.30;61.40;;;;;;5012671;28;20025;-71
2023/04/02 02:30:47;;;;;;;0.77;0.77;;;16.30;61.40;;;;;;5012712;28;20038;-71
2023/04/02 02:33:40;;;;;;;0.93;0.80;;;16.30;61.30;;;;;;5012662;28;20437;-71
2023/04/02 02:36:45;;;;;;;1.15;0.70;;;16.30;61.10;;;;;;5012811;28;20381;-71
2023/04/02 02:39:31;;;;;;;1.67;1.17;;;16.30;61.40;;;;;;5012888;28;20029;-72
2023/04/02 02:42:07;;;;;;;1.10;0.90;;;16.30;61.10;;;;;;5012803;28;20084;-71
2023/04/02 02:44:40;;;;;;;1.00;0.80;;;16.30;61.30;;;;;;5012759;28;20121;-71
2023/04/02 02:47:14;;;;;;;2.15;0.90;;;16.30;61.20;;;;;;5012677;28;20428;-71
2023/04/02 02:49:44;;;;;;;1.50;1.08;;;16.30;61.20;;;;;;5012708;28;20057;-71
2023/04/02 02:52:18;;;;;;;1.63;1.30;;;16.20;61.20;;;;;;5012378;28;20030;-71
2023/04/02 02:54:53;;;;;;;1.52;1.02;;;16.20;60.70;;;;;;5012370;28;20607;-71
2023/04/02 02:57:25;;;;;;;1.60;1.13;;;16.20;61.10;;;;;;5012315;28;20049;-71
2023/04/02 02:59:53;;;;;;;0.90;0.90;;;16.20;60.50;;;;;;5011525;28;20038;-71
2023/04/02 03:02:20;;;;;;;0.98;0.85;;;16.20;61.10;;;;;;4995087;28;20400;-72
2023/04/02 03:04:51;;;;;;;1.10;0.85;;;16.20;61.20;;;;;;5012194;28;20030;-71
2023/04/02 03:07:18;;;;;;;1.75;0.82;;;16.20;61.10;;;;;;5012240;28;20030;-71
2023/04/02 03:10:04;;;;;;;1.27;1.00;;;16.20;61.10;;;;;;5012214;28;20029;-71
2023/04/02 03:12:46;;;;;;;2.75;1.10;;;16.20;61.10;;;;;;5012420;28;20500;-71
2023/04/02 03:15:39;;;;;;;0.77;0.77;;;16.20;61.20;;;;;;5011980;28;20555;-71
2023/04/02 03:18:33;;;;;;;1.17;0.80;;;16.20;61.10;;;;;;5012167;28;20034;-71
2023/04/02 03:21:05;;;;;;;1.88;1.00;;;16.20;61.10;;;;;;5012479;28;20026;-71
2023/04/02 03:23:37;;;;;;;1.60;0.88;;;16.20;61.00;;;;;;5011922;28;20034;-71
2023/04/02 03:26:09;;;;;;;1.35;0.82;;;16.20;60.60;;;;;;4995273;28;20100;-71
2023/04/02 03:28:41;;;;;;;1.42;0.98;;;16.20;61.00;;;;;;5012016;28;20399;-71
2023/04/02 03:31:24;;;;;;;1.67;0.95;;;16.20;60.90;;;;;;5012103;28;20034;-71
2023/04/02 03:34:00;;;;;;;1.20;0.98;;;16.10;60.90;;;;;;5012191;28;20388;-71
2023/04/02 03:36:52;;;;;;;2.05;1.00;;;16.20;61.00;;;;;;5012201;28;20473;-71
2023/04/02 03:39:31;;;;;;;1.45;0.88;;;16.10;60.40;;;;;;5012017;28;20117;-71
2023/04/02 03:42:24;;;;;;;1.02;0.93;;;16.10;61.50;;;;;;5012227;28;20029;-71
2023/04/02 03:45:00;;;;;;;2.33;1.15;;;16.10;60.90;;;;;;5011831;28;20558;-71
2023/04/02 03:47:44;;;;;;;1.00;0.85;;;16.10;60.90;;;;;;5012165;28;20407;-71
2023/04/02 03:50:42;;;;;;;1.80;1.00;;;16.10;60.80;;;;;;5011977;28;20029;-71
2023/04/02 03:53:08;;;;;;;1.30;1.20;;;16.10;60.80;;;;;;5011875;28;20026;-71
2023/04/02 03:55:38;;;;;;;1.00;0.80;;;16.10;60.90;;;;;;5011822;28;20056;-71
2023/04/02 03:58:17;;;;;;;1.08;0.90;;;16.10;60.80;;;;;;5011869;28;20380;-71
2023/04/02 04:00:56;;;;;;;1.63;1.17;;;16.10;60.80;;;;;;5012026;28;20488;-71
2023/04/02 04:03:37;;;;;;;1.73;0.63;;;16.10;60.60;;;;;;5011927;28;20062;-71
2023/04/02 04:06:22;;;;;;;1.73;0.95;;;16.10;60.80;;;;;;5012018;28;20412;-71
2023/04/02 04:08:57;;;;;;;2.35;1.00;;;16.10;60.80;;;;;;5011930;28;20030;-71
2023/04/02 04:11:31;;;;;;;1.60;0.88;;;16.10;60.80;;;;;;5012656;28;20034;-71
2023/04/02 04:14:08;;;;;;;1.20;0.75;;;16.10;60.90;;;;;;5015635;28;20045;-71
2023/04/02 04:17:12;;;;;;;2.70;1.25;;;16.10;60.80;;;;;;5015031;28;20129;-71
2023/04/02 04:20:09;;;;;;;1.80;0.85;;;16.10;60.80;;;;;;5012906;28;20479;-72
2023/04/02 04:22:34;;;;;;;1.55;1.15;;;16.10;60.80;;;;;;5013112;28;20057;-71
2023/04/02 04:25:04;;;;;;;4.70;1.10;;;16.00;60.60;;;;;;5014942;28;20100;-71
2023/04/02 04:27:42;;;;;;;1.38;1.13;;;16.00;60.70;;;;;;5015222;28;20468;-71
2023/04/02 04:30:27;;;;;;;1.50;0.93;;;16.00;60.50;;;;;;5015010;28;20503;-71
2023/04/02 04:33:02;;;;;;;1.25;1.00;;;16.00;60.80;;;;;;5014814;28;20022;-71
2023/04/02 04:35:30;;;;;;;0.60;0.60;;;16.00;60.30;;;;;;5014973;28;20436;-71
2023/04/02 04:38:13;;;;;;;1.45;0.90;;;16.00;60.60;;;;;;5014704;28;20044;-71
2023/04/02 04:40:51;;;;;;;1.45;0.90;;;16.00;60.60;;;;;;5014670;28;20030;-71
2023/04/02 04:43:27;;;;;;;0.75;0.70;;;16.00;60.80;;;;;;5014809;28;20042;-71
2023/04/02 04:46:02;;;;;;;1.88;0.90;;;16.00;60.60;;;;;;5014555;28;20465;-71
2023/04/02 04:48:34;;;;;;;1.08;0.80;;;15.90;60.60;;;;;;5014862;28;20463;-71
2023/04/02 04:51:05;;;;;;;0.88;0.88;;;16.00;60.60;;;;;;5014590;28;20029;-71
2023/04/02 04:53:31;;;;;;;1.00;0.80;;;15.90;60.60;;;;;;5015007;28;20032;-71
2023/04/02 04:56:03;;;;;;;1.17;1.00;;;15.90;60.50;;;;;;5014651;28;20029;-71
2023/04/02 04:59:10;;;;;;;1.27;1.10;;;15.90;59.90;;;;;;5014591;28;20029;-71
2023/04/02 05:01:45;;;;;;;1.33;1.02;;;15.90;60.10;;;;;;5014714;28;20029;-71
2023/04/02 05:04:32;;;;;;;1.58;1.20;;;15.90;60.90;;;;;;5014114;28;20497;-71
2023/04/02 05:07:12;;;;;;;1.20;0.90;;;15.90;60.30;;;;;;5014113;28;20022;-71
2023/04/02 05:09:52;;;;;;;2.53;1.17;;;15.90;60.40;;;;;;5014479;28;20026;-71
2023/04/02 05:12:35;;;;;;;1.40;1.00;;;15.90;60.40;;;;;;5014369;28;20029;-71
2023/04/02 05:15:15;;;;;;;1.70;0.80;;;15.90;60.30;;;;;;5014068;28;20037;-71
2023/04/02 05:17:56;;;;;;;0.80;0.80;;;15.80;60.40;;;;;;5014035;28;20041;-71
2023/04/02 05:20:36;;;;;;;1.73;1.08;;;15.80;60.20;;;;;;5013953;28;20029;-71
2023/04/02 05:23:22;;;;;;;1.10;0.80;;;15.80;60.20;;;;;;5012942;28;20547;-71
2023/04/02 05:26:19;;;;;;;1.25;0.90;;;15.80;60.30;;;;;;5014111;28;20434;-71
2023/04/02 05:29:08;;;;;;;0.85;0.70;;;15.80;60.30;;;;;;5014171;28;20084;-71
2023/04/02 05:32:09;;;;;;;0.95;0.68;;;15.80;60.40;;;;;;5013998;28;20377;-71
2023/04/02 05:34:38;;;;;;;1.25;1.05;;;15.80;60.30;;;;;;5004501;28;20451;-71
2023/04/02 05:37:05;;;;;;;1.30;1.20;;;15.80;60.30;;;;;;5013670;28;20595;-71
2023/04/02 05:39:31;;;;;;;2.10;1.15;;;15.80;60.20;;;;;;5013828;28;20080;-71
2023/04/02 05:42:03;;;;;;;1.55;0.98;;;15.80;60.20;;;;;;4996157;28;20034;-71
2023/04/02 05:44:40;;;;;;;1.27;0.80;;;15.80;60.20;;;;;;5013689;28;20033;-71
2023/04/02 05:47:13;;;;;;;1.55;0.90;;;15.80;60.30;;;;;;5013830;28;20089;-71
2023/04/02 05:50:08;;;;;;;1.55;0.82;;;15.80;60.30;;;;;;5013726;28;20028;-71
2023/04/02 05:52:57;;;;;;;1.23;0.60;;;15.80;60.30;;;;;;5013611;28;20370;-71
2023/04/02 05:55:28;;;;;;;1.25;1.13;;;15.80;60.00;;;;;;5013331;28;20026;-71
2023/04/02 05:58:00;;;;;;;1.10;0.90;;;15.80;59.70;;;;;;5013560;28;20472;-70
2023/04/02 06:00:38;;;;;;;1.55;0.73;;;15.70;60.10;;;;;;5013149;28;20040;-71
2023/04/02 06:03:27;;;;;;;0.90;0.90;;;15.70;60.20;;;;;;5013064;28;20026;-70
2023/04/02 06:05:58;;;;;;;2.63;1.33;;;15.70;59.90;;;;;;5013426;28;20042;-71
2023/04/02 06:08:31;;;;;;;1.30;1.05;;;15.70;58.90;;;;;;4995571;28;20496;-71
2023/04/02 06:11:08;;;;;;;1.80;1.30;;;15.70;59.80;;;;;;5013323;28;20053;-71
2023/04/02 06:13:34;;;;;;;1.50;0.90;;;15.70;59.90;;;;;;5013300;28;20469;-71
2023/04/02 06:16:01;;;;;;;3.47;1.13;;;15.70;59.90;;;;;;5012624;28;20631;-71
2023/04/02 06:18:35;;;;;;;2.35;1.20;;;15.70;59.90;;;;;;4995815;28;20097;-71
2023/04/02 06:21:02;;;;;;;1.35;0.98;;;15.70;59.70;;;;;;5013178;28;20428;-71
2023/04/02 06:23:53;;;;;;;1.10;0.73;;;15.70;59.90;;;;;;5012743;28;20496;-71
2023/04/02 06:26:32;;;;;;;1.13;0.77;;;15.70;59.90;;;;;;5012808;28;20489;-71
2023/04/02 06:29:08;;;;;;;1.30;0.73;;;15.70;59.90;;;;;;5012776;28;20030;-71
2023/04/02 06:32:01;;;;;;;1.30;0.82;;;15.70;59.90;;;;;;4995738;28;20051;-71
2023/04/02 06:34:29;;;;;;;2.08;0.90;;;15.70;59.90;;;;;;5010538;28;20038;-72
2023/04/02 06:36:58;;;;;;;2.35;0.77;;;15.70;59.90;;;;;;5012880;28;20032;-71
2023/04/02 06:39:26;;;;;;;0.77;0.70;;;15.70;59.80;;;;;;5012490;28;20018;-72
2023/04/02 06:42:01;;;;;;;0.88;0.77;;;15.70;59.70;;;;;;5012556;28;20030;-71
2023/04/02 06:44:33;;;;;;;1.20;0.75;;;15.70;59.70;;;;;;4995880;28;20544;-72
2023/04/02 06:47:41;;;;;;;0.98;0.70;;;15.70;59.70;;;;;;5012818;28;20393;-71
2023/04/02 06:50:12;;;;;;;0.95;0.73;;;15.70;59.80;;;;;;5012306;28;20018;-71
2023/04/02 06:52:47;;;;;;;1.20;0.70;;;15.70;59.80;;;;;;5012459;28;20621;-71
2023/04/02 06:55:19;;;;;;;0.85;0.77;;;15.70;59.70;;;;;;5012631;28;20101;-70
2023/04/02 06:57:46;;;;;;;1.38;0.70;;;15.70;59.80;;;;;;5012609;28;20032;-71
2023/04/02 07:00:34;;;;;;;1.48;0.93;;;15.80;59.60;;;;;;5012639;28;20018;-71
2023/04/02 07:03:04;;;;;;;0.85;0.80;;;15.80;59.50;;;;;;5012223;28;20117;-70
2023/04/02 07:05:30;;;;;;;1.30;0.73;;;15.80;59.60;;;;;;5012336;28;20504;-69
2023/04/02 07:07:56;;;;;;;1.45;0.85;;;15.80;59.40;;;;;;5012534;28;20412;-68
2023/04/02 07:10:22;;;;;;;3.00;0.95;;;15.80;59.30;;;;;;5012493;28;20386;-72
2023/04/02 07:12:49;;;;;;;0.90;0.60;;;15.80;59.30;;;;;;5012404;28;20417;-70
2023/04/02 07:15:18;;;;;;;1.42;0.77;;;15.80;59.10;;;;;;5012159;28;20022;-70
2023/04/02 07:17:45;;;;;;;0.70;0.70;;;15.80;59.20;;;;;;5012469;28;20404;-70
2023/04/02 07:20:32;;;;;;;1.50;0.75;;;15.80;59.30;;;;;;5012165;28;20100;-69
2023/04/02 07:22:58;;;;;;;1.00;0.77;;;15.80;59.40;;;;;;5012131;28;20600;-70
2023/04/02 07:25:25;;;;;;;1.05;0.68;;;15.80;59.10;;;;;;5012335;28;20113;-70
2023/04/02 07:27:53;;;;;;;3.20;0.80;;;15.80;59.20;;;;;;5012379;28;20025;-71
2023/04/02 07:30:19;;;;;;;3.95;0.80;;;15.80;59.20;;;;;;5012110;28;20065;-71
2023/04/02 07:32:45;;;;;;;2.15;1.00;;;15.80;59.30;;;;;;5012031;28;20021;-71
2023/04/02 07:35:12;;;;;;;1.60;0.82;;;15.80;59.40;;;;;;5012300;28;20100;-72
2023/04/02 07:37:38;;;;;;;4.90;0.93;;;15.80;59.10;;;;;;5012398;28;20110;-71
2023/04/02 07:40:14;;;;;;;2.20;0.70;;;15.80;59.20;;;;;;4994878;28;20018;-71
2023/04/02 07:42:40;;;;;;;0.80;0.60;;;15.70;58.90;;;;;;5011954;28;20022;-72
2023/04/02 07:45:07;;;;;;;2.55;0.90;;;15.70;59.00;;;;;;5012129;28;20034;-72
2023/04/02 07:47:33;;;;;;;2.55;0.88;;;15.80;59.10;;;;;;5014859;28;20109;-71
2023/04/02 07:49:59;;;;;;;3.60;1.15;;;15.70;58.90;;;;;;5015891;28;20058;-72
2023/04/02 07:52:25;;;;;;;0.85;0.73;;;15.70;58.60;;;;;;4998550;28;20014;-72
2023/04/02 07:54:50;;;;;;;3.92;0.88;;;15.80;58.90;;;;;;5015675;28;20045;-72
2023/04/02 07:57:16;;;;;;;1.38;0.82;;;15.80;58.90;;;;;;5015851;28;20041;-72
2023/04/02 07:59:42;;;;;;;4.03;0.80;;;15.80;58.90;;;;;;5015694;28;20079;-72
2023/04/02 08:02:22;;;;;;;1.70;1.08;;;15.80;58.80;;;;;;5015687;28;20018;-72
2023/04/02 08:04:50;;;;;;;2.78;1.05;;;15.80;58.70;;;;;;5015272;28;20517;-72
2023/04/02 08:07:20;;;;;;;5.75;1.05;;;15.80;58.70;;;;;;5015641;28;20026;-71
2023/04/02 08:10:05;;;;;;;2.15;0.90;;;15.70;58.90;;;;;;5013547;28;20400;-72
2023/04/02 08:12:31;;;;;;;1.63;0.77;;;15.70;58.80;;;;;;5015571;28;20021;-72
2023/04/02 08:14:57;;;;;;;2.28;0.90;;;15.80;59.30;;;;;;5015475;28;20393;-71
2023/04/02 08:17:23;;;;;;;1.75;0.77;;;15.70;58.70;;;;;;5015017;28;20053;-71
2023/04/02 08:19:49;;;;;;;2.83;1.00;;;15.70;58.60;;;;;;5015340;28;20026;-71
2023/04/02 08:22:15;;;;;;;4.07;1.38;;;15.70;58.60;;;;;;5015315;28;20026;-71
2023/04/02 08:24:41;;;;;;;1.42;0.88;;;15.70;58.70;;;;;;5014908;28;20072;-71
2023/04/02 08:27:12;;;;;;;2.63;0.80;;;15.70;58.80;;;;;;5015174;28;20025;-71
2023/04/02 08:29:38;;;;;;;3.30;0.88;;;15.70;58.70;;;;;;5015302;28;20025;-72
2023/04/02 08:32:06;;;;;;;1.52;0.82;;;15.70;58.60;;;;;;5014923;28;20393;-72
2023/04/02 08:34:32;;;;;;;2.22;0.88;;;15.70;58.60;;;;;;5014822;28;20041;-72
2023/04/02 08:36:58;;;;;;;2.58;1.00;;;15.70;58.50;;;;;;5015053;28;20026;-71
2023/04/02 08:39:28;;;;;;;1.67;0.90;;;15.70;58.40;;;;;;5014684;28;20500;-71
2023/04/02 08:42:32;;;;;;;1.17;0.80;;;15.60;58.50;;;;;;5015250;28;20022;-71
2023/04/02 08:45:35;;;;;;;2.35;0.80;;;15.60;58.70;;;;;;4980705;28;20037;-71
2023/04/02 08:48:04;;;;;;;6.35;0.90;;;15.60;58.60;;;;;;4973251;28;20035;-72
2023/04/02 08:50:34;;;;;;;0.82;0.82;;;15.60;58.70;;;;;;5007595;28;20084;-72
2023/04/02 08:53:22;;;;;;;1.90;1.00;;;15.60;58.60;;;;;;4997028;28;20033;-71
2023/04/02 08:56:08;;;;;;;2.80;1.15;;;15.60;58.60;;;;;;5014125;28;20421;-71
2023/04/02 08:58:44;;;;;;;1.67;0.85;;;15.60;58.30;;;;;;5014634;28;20018;-71
2023/04/02 09:01:33;;;;;;;2.83;0.93;;;15.60;58.60;;;;;;5014542;28;20030;-72
2023/04/02 09:04:02;;;;;;;1.57;0.80;;;15.60;58.40;;;;;;5014516;28;20050;-72
2023/04/02 09:06:28;;;;;;;1.33;1.10;;;15.60;58.40;;;;;;5014565;28;20401;-71
2023/04/02 09:08:56;;;;;;;1.88;0.88;;;15.60;58.40;;;;;;5014459;28;20473;-72
2023/04/02 09:11:22;;;;;;;2.00;0.98;;;15.60;58.40;;;;;;5014481;28;20025;-71
2023/04/02 09:13:54;;;;;;;2.15;0.88;;;15.60;58.50;;;;;;5014280;28;20030;-71
2023/04/02 09:16:32;;;;;;;2.50;1.05;;;15.60;58.10;;;;;;4996388;28;20046;-72
2023/04/02 09:18:59;;;;;;;2.53;1.00;;;15.60;58.20;;;;;;5017139;28;20028;-71
2023/04/02 09:21:31;;;;;;;2.67;0.85;;;15.50;58.00;;;;;;4996744;28;20104;-70
2023/04/02 09:23:57;;;;;;;3.60;1.13;;;;;;;;;;5013769;28;20073;-71
2023/04/02 09:26:29;;;;;;;2.75;1.15;;;15.50;57.70;;;;;;4996302;28;20030;-71
2023/04/02 09:29:24;;;;;;;2.53;1.10;;;15.50;58.20;;;;;;5014110;28;20022;-72
2023/04/02 09:32:13;;;;;;;3.85;0.80;;;15.50;58.40;;;;;;5013805;28;20548;-71
2023/04/02 09:34:39;;;;;;;2.75;1.08;;;15.50;58.00;;;;;;5013916;28;20022;-72
2023/04/02 09:37:15;;;;;;;0.90;0.68;;;15.50;58.10;;;;;;5013806;28;20384;-71
2023/04/02 09:39:41;;;;;;;1.08;0.77;;;;;;;;;;5013633;28;20026;-72
2023/04/02 09:42:27;;;;;;;1.13;0.70;;;15.50;57.70;;;;;;5013516;28;20045;-71
2023/04/02 09:45:18;;;;;;;2.05;0.88;;;15.50;58.30;;;;;;5013774;28;20030;-71
2023/04/02 09:47:44;;;;;;;1.95;0.80;;;;;;;;;;5013566;28;20037;-71
2023/04/02 09:50:31;;;;;;;1.42;0.63;;;15.50;57.90;;;;;;5013439;28;20037;-71
2023/04/02 09:52:58;;;;;;;1.08;0.60;;;15.50;58.40;;;;;;5013669;28;20030;-72
2023/04/02 09:55:29;;;;;;;1.08;0.80;;;15.50;58.40;;;;;;5013231;28;20026;-72
2023/04/02 09:58:11;;;;;;;1.33;0.70;;;15.50;58.40;;;;;;5013239;28;20079;-72
2023/04/02 10:00:38;;;;;;;1.75;0.70;;;15.50;58.50;;;;;;5013259;28;20128;-71
2023/04/02 10:03:22;;;;;;;2.53;0.90;;;15.50;58.40;;;;;;5013107;28;20385;-72
2023/04/02 10:06:01;;;;;;;1.80;0.60;;;15.50;58.20;;;;;;5013160;28;20396;-72
2023/04/02 10:08:27;;;;;;;2.55;0.73;;;15.50;58.20;;;;;;5013044;28;20076;-71
2023/04/02 10:10:57;;;;;;;2.15;0.93;;;15.40;58.20;;;;;;5012615;28;20033;-71
2023/04/02 10:13:32;;;;;;;0.80;0.60;;;15.50;58.20;;;;;;5013026;28;20037;-71
2023/04/02 10:16:05;;;;;;;1.63;0.63;;;15.50;58.40;;;;;;5012713;28;20061;-72
2023/04/02 10:18:43;;;;;;;1.85;0.85;;;15.40;58.30;;;;;;5013180;28;20022;-72
2023/04/02 10:21:15;;;;;;;1.20;0.60;;;15.50;58.20;;;;;;5012834;28;20492;-69
2023/04/02 10:23:41;;;;;;;0.68;0.52;;;15.50;58.10;;;;;;5013213;28;20030;-70
2023/04/02 10:26:30;;;;;;;2.63;0.73;;;15.40;58.20;;;;;;5013061;28;20026;-71
2023/04/02 10:29:25;;;;;;;1.52;0.60;;;15.40;58.30;;;;;;5013157;28;20080;-71
2023/04/02 10:32:04;;;;;;;1.60;0.50;;;15.40;58.30;;;;;;5004220;28;20461;-71
2023/04/02 10:34:41;;;;;;;0.93;0.80;;;15.50;58.50;;;;;;5013004;28;20029;-71
2023/04/02 10:37:31;;;;;;;3.78;0.90;;;15.40;58.30;;;;;;5012895;28;20442;-71
2023/04/02 10:40:10;;;;;;;2.97;1.10;;;15.40;58.20;;;;;;5012872;28;20030;-71
2023/04/02 10:43:00;;;;;;;2.70;0.75;;;15.40;58.70;;;;;;4994990;28;20500;-71
2023/04/02 10:45:38;;;;;;;;;;;15.40;58.00;;;;;;5013037;28;20536;-71
2023/04/02 10:48:22;;;;;;;4.18;0.75;;;15.40;58.20;;;;;;5012772;28;20327;-71
2023/04/02 10:51:05;;;;;;;1.88;0.80;;;15.50;58.20;;;;;;5012711;28;20061;-71
2023/04/02 10:53:55;;;;;;;2.53;1.23;;;15.40;57.90;;;;;;5012654;28;20052;-71
2023/04/02 10:56:22;;;;;;;;;;;15.40;57.90;;;;;;4995147;28;20473;-72
2023/04/02 10:59:05;;;;;;;0.90;0.60;;;15.40;58.00;;;;;;5012244;28;20379;-71
2023/04/02 11:01:33;;;;;;;1.90;0.73;;;15.40;58.00;;;;;;5012213;28;20510;-72
2023/04/02 11:04:06;;;;;;;3.08;1.08;;;15.50;58.10;;;;;;5012475;28;20374;-71
2023/04/02 11:06:41;;;;;;;3.63;0.95;;;15.50;58.00;;;;;;5012435;28;20057;-71
2023/04/02 11:09:17;;;;;;;1.02;0.80;;;15.70;57.50;;;;;;5012574;28;20380;-71
2023/04/02 11:11:47;;;;;;;2.33;1.00;;;15.80;57.20;;;;;;5012262;28;20024;-69
2023/04/02 11:14:29;;;;;;;0.77;0.50;;;15.90;56.90;;;;;;4994536;28;20026;-69
2023/04/02 11:17:01;;;;;;;1.67;0.90;;;16.00;56.70;;;;;;5012156;28;20289;-71
2023/04/02 11:19:30;;;;;;;1.85;0.80;;;16.10;56.60;;;;;;5012277;28;20037;-72
2023/04/02 11:22:12;;;;;;;1.10;0.82;;;16.20;56.30;;;;;;5013815;28;20041;-71
2023/04/02 11:24:47;;;;;;;1.83;0.98;;;16.30;55.70;;;;;;5016424;28;20381;-71
2023/04/02 11:27:26;;;;;;;3.50;0.77;;;16.40;55.60;;;;;;5016126;28;20026;-70
2023/04/02 11:30:02;;;;;;;1.30;1.00;;;16.40;55.70;;;;;;5016333;28;20030;-71
2023/04/02 11:32:41;;;;;;;1.15;0.98;;;16.40;55.90;;;;;;5016095;28;20481;-71
2023/04/02 11:35:35;;;;;;;3.03;0.73;;;16.50;56.20;;;;;;5016260;28;20040;-71
2023/04/02 11:38:21;;;;;;;2.25;0.98;;;16.50;55.80;;;;;;5016128;28;20430;-71
2023/04/02 11:40:57;;;;;;;1.25;0.60;;;16.50;56.30;;;;;;5015825;28;20095;-71
2023/04/02 11:43:32;;;;;;;1.88;0.85;;;16.50;56.30;;;;;;5016026;28;20030;-70
2023/04/02 11:46:00;;;;;;;1.42;0.80;;;16.50;56.40;;;;;;5015757;28;20041;-73
2023/04/02 11:48:27;;;;;;;2.35;0.80;;;16.60;56.40;;;;;;5016050;28;20028;-73
2023/04/02 11:50:53;;;;;;;3.00;0.95;;;16.80;55.90;;;;;;5016145;28;20037;-71
2023/04/02 11:53:30;;;;;;;1.73;0.70;;;17.00;55.70;;;;;;5016013;28;20018;-72
2023/04/02 11:55:57;;;;;;;3.42;0.90;;;17.10;55.40;;;;;;5015643;28;20029;-72
2023/04/02 11:58:38;;;;;;;3.20;0.82;;;17.20;55.20;;;;;;5015805;28;20109;-73
2023/04/02 12:01:42;;;;;;;1.92;0.70;;;17.30;55.20;;;;;;5015562;28;20033;-73
2023/04/02 12:04:34;;;;;;;2.03;0.70;;;17.30;55.30;;;;;;5015400;28;20038;-74
2023/04/02 12:07:03;;;;;;;3.60;0.98;;;17.40;55.40;;;;;;5015437;28;20026;-74
2023/04/02 12:09:43;;;;;;;5.07;1.15;;;17.40;55.10;;;;;;5015680;28;20033;-74
2023/04/02 12:12:37;;;;;;;1.85;0.63;;;17.40;55.30;;;;;;5015491;28;20030;-74
2023/04/02 12:15:07;;;;;;;1.08;0.60;;;17.50;55.20;;;;;;5013557;28;20113;-73
2023/04/02 12:17:37;;;;;;;0.60;0.60;;;17.60;55.20;;;;;;5015179;28;20038;-74
2023/04/02 12:20:08;;;;;;;;;;;17.70;54.80;;;;;;5015538;28;20485;-75
2023/04/02 12:22:37;;;;;;;3.50;0.80;;;17.80;55.00;;;;;;5015222;28;20288;-73
2023/04/02 12:25:17;;;;;;;2.60;0.88;;;17.90;54.50;;;;;;5014911;28;20048;-73
2023/04/02 12:27:45;;;;;;;2.95;0.85;;;18.00;54.50;;;;;;5015036;28;20033;-73
2023/04/02 12:30:20;;;;;;;1.75;0.68;;;18.10;54.60;;;;;;5015123;28;20516;-73
2023/04/02 12:32:46;;;;;;;1.80;0.88;;;18.20;54.50;;;;;;5014593;28;20038;-73
2023/04/02 12:35:42;;;;;;;1.90;0.60;;;18.30;54.30;;;;;;5014971;28;20481;-73
2023/04/02 12:38:21;;;;;;;1.00;0.85;;;18.30;54.40;;;;;;5006854;28;20038;-74
2023/04/02 12:41:02;;;;;;;3.33;0.73;;;18.50;53.80;;;;;;5015213;28;20046;-73
2023/04/02 12:43:29;;;;;;;;;;;18.60;53.80;;;;;;5015291;28;20292;-74
2023/04/02 12:45:58;;;;;;;2.90;1.10;;;18.70;53.60;;;;;;5014723;28;19959;-74
2023/04/02 12:48:26;;;;;;;2.53;0.70;;;18.80;52.90;;;;;;5014926;28;20025;-74
2023/04/02 12:50:52;;;;;;;1.55;0.60;;;18.90;53.50;;;;;;5014884;28;20018;-74
2023/04/02 12:53:27;;;;;;;1.75;0.90;;;18.90;54.00;;;;;;5014522;28;20018;-74
2023/04/02 12:55:53;;;;;;;1.60;0.60;;;18.90;53.20;;;;;;5014758;28;20033;-74
2023/04/02 12:58:40;;;;;;;1.27;0.70;;;18.90;53.60;;;;;;5014673;28;20026;-74
2023/04/02 13:01:13;;;;;;;2.20;0.93;;;19.00;53.70;;;;;;5014421;28;20469;-74
2023/04/02 13:03:39;;;;;;;1.60;0.98;;;19.00;54.10;;;;;;5014670;28;20045;-74
2023/04/02 13:06:22;;;;;;;1.20;0.50;;;19.00;53.50;;;;;;5014624;28;20022;-74
2023/04/02 13:08:48;;;;;;;1.95;1.05;;;19.10;53.80;;;;;;5014626;28;20029;-74
2023/04/02 13:11:15;;;;;;;1.75;0.80;;;19.20;53.60;;;;;;5014237;28;20026;-74
2023/04/02 13:13:42;;;;;;;3.95;1.00;;;19.20;53.70;;;;;;5014461;28;20057;-75
2023/04/02 13:16:14;;;;;;;2.08;0.70;;;19.30;53.70;;;;;;5014022;28;20042;-74
2023/04/02 13:18:42;;;;;;;1.75;0.88;;;19.30;53.40;;;;;;5014383;28;20038;-74
2023/04/02 13:21:18;;;;;;;1.35;0.65;;;19.30;53.70;;;;;;5014333;28;20014;-75
2023/04/02 13:23:44;;;;;;;2.25;0.80;;;19.40;53.20;;;;;;5014136;28;20038;-75
2023/04/02 13:26:18;;;;;;;1.70;0.80;;;19.50;53.00;;;;;;5014339;28;20029;-75
2023/04/02 13:29:16;;;;;;;1.10;0.80;;;19.60;52.50;;;;;;5014234;28;20034;-75
2023/04/02 13:31:42;;;;;;;1.25;0.50;;;19.60;52.70;;;;;;5013856;28;20117;-75